createdAt,value
2023-02-19T00:02:13.703Z,0.77
2023-02-19T00:05:15.726Z,1.10
2023-02-19T00:08:18.057Z,1.00
2023-02-19T00:11:22.776Z,0.83
2023-02-19T00:14:25.051Z,0.90
2023-02-19T00:17:27.011Z,1.00
2023-02-19T00:20:29.054Z,1.00
2023-02-19T00:23:31.403Z,0.80
2023-02-19T00:26:34.266Z,0.93
2023-02-19T00:29:36.787Z,1.00
2023-02-19T00:32:38.739Z,1.10
2023-02-19T00:35:40.645Z,0.80
2023-02-19T00:38:43.794Z,1.30
2023-02-19T00:41:46.629Z,0.80
2023-02-19T00:44:49.154Z,1.20
2023-02-19T00:47:51.055Z,1.20
2023-02-19T00:50:53.188Z,0.87
2023-02-19T00:53:55.251Z,1.00
2023-02-19T00:56:57.719Z,0.90
2023-02-19T00:59:59.685Z,1.00
2023-02-19T01:03:01.673Z,0.90
2023-02-19T01:06:04.928Z,0.70
2023-02-19T01:09:08.461Z,1.07
2023-02-19T01:12:10.653Z,0.70
2023-02-19T01:15:13.065Z,0.60
2023-02-19T01:18:15.068Z,0.83
2023-02-19T01:21:19.901Z,1.07
2023-02-19T01:24:22.037Z,0.70
2023-02-19T01:27:23.941Z,0.90
2023-02-19T01:30:25.903Z,0.90
2023-02-19T01:33:27.820Z,1.00
2023-02-19T01:36:32.688Z,0.77
2023-02-19T01:39:34.551Z,1.20
2023-02-19T01:42:36.539Z,0.80
2023-02-19T01:45:40.030Z,0.70
2023-02-19T01:48:42.029Z,0.80
2023-02-19T01:51:57.972Z,0.77
2023-02-19T01:55:02.261Z,0.90
2023-02-19T01:58:04.709Z,0.80
2023-02-19T02:01:08.493Z,0.80
2023-02-19T02:04:12.694Z,0.87
2023-02-19T02:07:33.051Z,0.67
2023-02-19T02:10:35.019Z,0.70
2023-02-19T02:13:37.414Z,0.70
2023-02-19T02:17:02.277Z,0.60
2023-02-19T02:20:10.309Z,0.97
2023-02-19T02:23:17.069Z,0.70
2023-02-19T02:26:36.585Z,0.60
2023-02-19T02:30:09.826Z,0.80
2023-02-19T02:33:18.075Z,0.63
2023-02-19T02:36:27.787Z,0.57
2023-02-19T02:39:30.997Z,0.60
2023-02-19T02:42:34.734Z,0.83
2023-02-19T02:45:37.168Z,0.70
2023-02-19T02:48:54.160Z,0.67
2023-02-19T02:51:57.279Z,0.70
2023-02-19T02:55:05.207Z,0.77
2023-02-19T02:58:08.342Z,0.70
2023-02-19T03:01:37.410Z,0.60
2023-02-19T03:05:13.140Z,0.67
2023-02-19T03:08:16.428Z,0.70
2023-02-19T03:11:57.402Z,0.60
2023-02-19T03:15:23.541Z,0.70
2023-02-19T03:18:47.027Z,0.90
2023-02-19T03:22:10.400Z,0.70
2023-02-19T03:25:46.866Z,0.77
2023-02-19T03:29:09.851Z,0.60
2023-02-19T03:32:38.192Z,0.87
2023-02-19T03:35:54.158Z,0.53
2023-02-19T03:39:00.332Z,0.80
2023-02-19T03:42:08.390Z,0.93
2023-02-19T03:45:22.449Z,0.70
2023-02-19T03:48:40.219Z,0.80
2023-02-19T03:51:51.603Z,0.83
2023-02-19T03:54:58.566Z,0.80
2023-02-19T03:58:15.010Z,0.73
2023-02-19T04:01:38.392Z,0.70
2023-02-19T04:04:45.792Z,0.87
2023-02-19T04:07:50.335Z,0.70
2023-02-19T04:10:53.172Z,0.80
2023-02-19T04:14:00.393Z,0.90
2023-02-19T04:17:06.005Z,0.70
2023-02-19T04:20:09.780Z,1.00
2023-02-19T04:23:13.125Z,0.90
2023-02-19T04:26:20.675Z,0.70
2023-02-19T04:29:22.684Z,1.00
2023-02-19T04:32:24.618Z,1.03
2023-02-19T04:35:27.013Z,1.13
2023-02-19T04:38:28.968Z,1.57
2023-02-19T04:41:31.438Z,1.07
2023-02-19T04:44:34.829Z,1.17
2023-02-19T04:47:37.059Z,1.27
2023-02-19T04:50:40.249Z,1.40
2023-02-19T04:53:43.122Z,1.17
2023-02-19T04:56:45.002Z,1.43
2023-02-19T04:59:47.780Z,0.93
2023-02-19T05:02:49.646Z,1.03
2023-02-19T05:05:51.601Z,1.20
2023-02-19T05:08:53.600Z,1.00
2023-02-19T05:11:55.877Z,1.00
2023-02-19T05:14:57.821Z,1.00
2023-02-19T05:18:00.020Z,1.20
2023-02-19T05:21:02.262Z,1.00
2023-02-19T05:24:04.677Z,0.83
2023-02-19T05:27:06.662Z,0.70
2023-02-19T05:30:09.550Z,0.90
2023-02-19T05:33:11.526Z,0.80
2023-02-19T05:36:14.396Z,0.80
2023-02-19T05:39:16.393Z,0.50
2023-02-19T05:42:18.375Z,0.90
2023-02-19T05:45:20.337Z,0.83
2023-02-19T05:48:22.207Z,0.83
2023-02-19T05:51:26.202Z,0.60
2023-02-19T05:54:31.954Z,0.37
2023-02-19T05:57:33.871Z,0.63
2023-02-19T06:00:36.078Z,0.40
2023-02-19T06:03:38.005Z,0.43
2023-02-19T06:06:40.959Z,1.00
2023-02-19T06:09:42.832Z,0.70
2023-02-19T06:12:44.866Z,0.70
2023-02-19T06:15:46.723Z,0.70
2023-02-19T06:18:50.122Z,0.67
2023-02-19T06:21:52.492Z,0.70
2023-02-19T06:24:54.716Z,0.60
2023-02-19T06:27:56.622Z,0.57
2023-02-19T06:30:59.396Z,0.30
2023-02-19T06:34:05.278Z,0.60
2023-02-19T06:37:07.260Z,0.50
2023-02-19T06:40:09.418Z,0.50
2023-02-19T06:43:11.339Z,0.50
2023-02-19T06:46:13.624Z,0.60
2023-02-19T06:49:15.938Z,0.60
2023-02-19T06:52:17.854Z,0.33
2023-02-19T06:55:20.084Z,0.70
2023-02-19T06:58:22.061Z,0.70
2023-02-19T07:01:24.875Z,0.70
2023-02-19T07:04:26.991Z,0.57
2023-02-19T07:07:29.084Z,0.70
2023-02-19T07:10:31.145Z,0.70
2023-02-19T07:13:33.749Z,0.40
2023-02-19T07:16:36.362Z,0.70
2023-02-19T07:19:38.936Z,0.80
2023-02-19T07:22:40.791Z,0.60
2023-02-19T07:25:43.311Z,0.70
2023-02-19T07:28:48.318Z,0.80
2023-02-19T07:31:50.373Z,0.90
2023-02-19T07:34:52.602Z,0.70
2023-02-19T07:37:54.957Z,0.80
2023-02-19T07:40:59.438Z,0.67
2023-02-19T07:44:01.501Z,0.67
2023-02-19T07:47:03.497Z,0.80
2023-02-19T07:50:06.082Z,0.60
2023-02-19T07:53:08.186Z,0.90
2023-02-19T07:56:11.799Z,0.70
2023-02-19T07:59:13.737Z,0.57
2023-02-19T08:02:39.289Z,0.70
2023-02-19T08:05:43.187Z,0.90
2023-02-19T08:08:45.642Z,0.97
2023-02-19T08:12:06.732Z,0.90
2023-02-19T08:15:09.040Z,0.83
2023-02-19T08:18:11.718Z,0.80
2023-02-19T08:21:14.006Z,1.07
2023-02-19T08:24:15.919Z,1.00
2023-02-19T08:27:17.852Z,0.87
2023-02-19T08:30:19.872Z,1.10
2023-02-19T08:33:22.113Z,1.00
2023-02-19T08:36:24.292Z,0.50
2023-02-19T08:39:26.186Z,0.50
2023-02-19T08:42:29.468Z,0.53
2023-02-19T08:45:32.548Z,0.53
2023-02-19T08:48:34.418Z,0.70
2023-02-19T08:51:36.366Z,0.40
2023-02-19T08:54:38.235Z,0.40
2023-02-19T08:57:40.466Z,0.50
2023-02-19T09:00:42.359Z,0.40
2023-02-19T09:03:44.748Z,0.50
2023-02-19T09:06:46.650Z,0.50
2023-02-19T09:09:49.437Z,0.57
2023-02-19T09:12:51.379Z,0.33
2023-02-19T09:15:53.979Z,0.40
2023-02-19T09:18:56.046Z,0.50
2023-02-19T09:21:58.709Z,0.70
2023-02-19T09:25:00.586Z,0.43
2023-02-19T09:28:02.628Z,0.50
2023-02-19T09:31:06.531Z,0.40
2023-02-19T09:34:08.826Z,0.40
2023-02-19T09:37:10.831Z,0.37
2023-02-19T09:40:13.975Z,0.23
2023-02-19T09:43:20.083Z,0.40
2023-02-19T09:46:33.992Z,0.30
2023-02-19T09:49:38.366Z,0.30
2023-02-19T09:52:45.772Z,0.20
2023-02-19T09:55:48.133Z,0.43
2023-02-19T09:58:57.238Z,0.30
2023-02-19T10:02:05.497Z,0.30
2023-02-19T10:05:14.014Z,0.37
2023-02-19T10:08:20.390Z,0.50
2023-02-19T10:11:23.848Z,0.40
2023-02-19T10:14:39.482Z,0.30
2023-02-19T10:17:41.606Z,0.20
2023-02-19T10:20:44.012Z,0.50
2023-02-19T10:23:48.033Z,0.40
2023-02-19T10:26:50.568Z,0.47
2023-02-19T10:29:52.709Z,0.50
2023-02-19T10:33:09.862Z,0.40
2023-02-19T10:36:25.481Z,0.40
2023-02-19T10:39:42.764Z,0.27
2023-02-19T10:42:47.678Z,0.30
2023-02-19T10:45:53.633Z,0.40
2023-02-19T10:48:58.580Z,0.20
2023-02-19T10:52:12.921Z,0.30
2023-02-19T10:55:30.893Z,0.40
2023-02-19T10:58:38.648Z,0.20
2023-02-19T11:01:58.365Z,0.40
2023-02-19T11:05:11.963Z,0.50
2023-02-19T11:08:22.420Z,0.50
2023-02-19T11:11:39.935Z,0.50
2023-02-19T11:14:45.207Z,0.30
2023-02-19T11:17:55.256Z,0.40
2023-02-19T11:21:06.759Z,0.53
2023-02-19T11:24:24.068Z,0.30
2023-02-19T11:27:26.008Z,0.40
2023-02-19T11:30:31.393Z,0.50
2023-02-19T11:33:35.714Z,0.40
2023-02-19T11:36:38.138Z,0.53
2023-02-19T11:39:47.997Z,0.37
2023-02-19T11:42:57.761Z,0.30
2023-02-19T11:46:02.886Z,0.40
2023-02-19T11:49:35.128Z,0.40
2023-02-19T11:52:44.160Z,0.40
2023-02-19T11:55:55.597Z,0.43
2023-02-19T11:59:19.162Z,0.70
2023-02-19T12:02:39.564Z,0.23
2023-02-19T12:06:16.647Z,0.43
2023-02-19T12:09:56.705Z,1.20
2023-02-19T12:13:04.746Z,0.43
2023-02-19T12:16:18.749Z,0.30
2023-02-19T12:19:51.367Z,0.40
2023-02-19T12:23:34.679Z,0.30
2023-02-19T12:27:16.486Z,0.47
2023-02-19T12:30:25.948Z,0.40
2023-02-19T12:33:52.730Z,0.30
2023-02-19T12:37:24.811Z,0.33
2023-02-19T12:40:45.138Z,0.40
2023-02-19T12:44:02.683Z,0.30
2023-02-19T12:47:07.803Z,0.20
2023-02-19T12:50:23.539Z,0.40
2023-02-19T12:53:32.464Z,0.43
2023-02-19T12:56:38.308Z,0.50
2023-02-19T12:59:44.556Z,0.40
2023-02-19T13:03:01.573Z,0.40
2023-02-19T13:06:27.555Z,0.60
2023-02-19T13:09:51.289Z,0.50
2023-02-19T13:12:54.980Z,0.47
2023-02-19T13:16:01.082Z,0.50
2023-02-19T13:19:04.872Z,0.37
2023-02-19T13:22:45.381Z,0.50
2023-02-19T13:26:12.351Z,0.50
2023-02-19T13:29:32.527Z,0.60
2023-02-19T13:33:00.810Z,0.60
2023-02-19T13:36:08.477Z,0.57
2023-02-19T13:42:27.865Z,6.60
2023-02-19T13:45:40.282Z,1.30
2023-02-19T13:48:44.852Z,0.90
2023-02-19T13:51:57.496Z,0.87
2023-02-19T13:55:41.344Z,1.20
2023-02-19T13:58:58.272Z,0.93
2023-02-19T14:02:04.877Z,0.60
2023-02-19T14:05:12.277Z,0.60
2023-02-19T14:08:58.095Z,0.50
2023-02-19T14:12:03.468Z,0.80
2023-02-19T14:15:41.896Z,0.50
2023-02-19T14:18:45.747Z,0.50
2023-02-19T14:21:47.699Z,0.40
2023-02-19T14:24:49.925Z,0.47
2023-02-19T14:28:18.894Z,0.53
2023-02-19T14:31:29.977Z,0.40
2023-02-19T14:34:38.608Z,0.73
2023-02-19T14:37:43.328Z,0.40
2023-02-19T14:40:46.551Z,0.60
2023-02-19T14:43:49.909Z,0.70
2023-02-19T14:47:05.872Z,0.70
2023-02-19T14:50:32.509Z,0.50
2023-02-19T14:53:39.056Z,0.30
2023-02-19T14:56:43.810Z,1.20
2023-02-19T15:00:24.067Z,0.57
2023-02-19T15:03:35.349Z,0.63
2023-02-19T15:06:37.791Z,0.70
2023-02-19T15:09:50.823Z,0.60
2023-02-19T15:13:16.906Z,1.40
2023-02-19T15:16:20.733Z,1.60
2023-02-19T15:19:22.982Z,1.13
2023-02-19T15:22:28.759Z,0.70
2023-02-19T15:25:36.942Z,0.63
2023-02-19T15:28:38.840Z,0.80
2023-02-19T15:32:00.883Z,0.70
2023-02-19T15:35:04.876Z,0.93
2023-02-19T15:38:12.684Z,0.60
2023-02-19T15:41:25.693Z,0.40
2023-02-19T15:44:41.132Z,0.60
2023-02-19T15:47:54.576Z,0.93
2023-02-19T15:51:08.725Z,0.73
2023-02-19T15:54:27.122Z,0.40
2023-02-19T15:57:33.080Z,0.40
2023-02-19T16:00:41.674Z,0.40
2023-02-19T16:03:44.618Z,0.37
2023-02-19T16:06:58.301Z,0.50
2023-02-19T16:10:09.713Z,0.70
2023-02-19T16:13:12.299Z,0.57
2023-02-19T16:16:24.455Z,0.50
2023-02-19T16:19:30.182Z,0.70
2023-02-19T16:22:35.445Z,0.40
2023-02-19T16:25:42.135Z,0.60
2023-02-19T16:28:44.899Z,0.60
2023-02-19T16:31:57.111Z,0.60
2023-02-19T16:34:59.075Z,0.40
2023-02-19T16:38:01.014Z,0.40
2023-02-19T16:41:13.253Z,0.60
2023-02-19T16:44:21.803Z,0.77
2023-02-19T16:47:27.822Z,0.60
2023-02-19T16:50:29.713Z,0.90
2023-02-19T16:53:34.119Z,0.80
2023-02-19T16:56:36.026Z,0.50
2023-02-19T16:59:38.068Z,0.67
2023-02-19T17:02:39.945Z,1.20
2023-02-19T17:05:42.620Z,0.70
2023-02-19T17:08:44.976Z,0.80
2023-02-19T17:11:46.941Z,1.00
2023-02-19T17:14:48.793Z,0.97
2023-02-19T17:17:51.444Z,1.47
2023-02-19T17:21:08.570Z,1.10
2023-02-19T17:24:10.533Z,1.20
2023-02-19T17:27:13.472Z,1.30
2023-02-19T17:30:25.487Z,1.70
2023-02-19T17:33:27.394Z,2.70
2023-02-19T17:36:31.931Z,1.30
2023-02-19T17:39:33.826Z,1.33
2023-02-19T17:42:35.864Z,1.53
2023-02-19T17:45:37.794Z,1.90
2023-02-19T17:48:39.754Z,1.27
2023-02-19T17:51:41.613Z,2.50
2023-02-19T17:54:44.216Z,2.33
2023-02-19T17:57:49.540Z,6.20
2023-02-19T18:00:51.900Z,5.57
2023-02-19T18:03:53.953Z,4.27
2023-02-19T18:06:56.128Z,5.53
2023-02-19T18:09:58.029Z,3.10
2023-02-19T18:12:59.953Z,2.20
2023-02-19T18:16:01.882Z,1.47
2023-02-19T18:19:04.502Z,1.43
2023-02-19T18:22:06.683Z,1.10
2023-02-19T18:25:09.377Z,2.30
2023-02-19T18:28:11.288Z,1.13
2023-02-19T18:31:13.580Z,1.83
2023-02-19T18:34:19.825Z,1.00
2023-02-19T18:37:22.561Z,0.90
2023-02-19T18:40:27.396Z,1.13
2023-02-19T18:43:29.261Z,0.73
2023-02-19T18:46:32.355Z,1.33
2023-02-19T18:49:34.662Z,3.60
2023-02-19T18:52:36.820Z,5.23
2023-02-19T18:55:38.801Z,2.00
2023-02-19T18:58:40.635Z,1.30
2023-02-19T19:01:43.242Z,1.73
2023-02-19T19:04:49.111Z,2.00
2023-02-19T19:07:52.771Z,0.80
2023-02-19T19:10:54.878Z,3.07
2023-02-19T19:13:56.918Z,0.70
2023-02-19T19:17:00.391Z,1.20
2023-02-19T19:20:02.346Z,2.40
2023-02-19T19:23:05.423Z,1.00
2023-02-19T19:26:07.749Z,1.80
2023-02-19T19:29:09.625Z,6.47
2023-02-19T19:32:12.442Z,4.40
2023-02-19T19:35:16.874Z,2.13
2023-02-19T19:38:20.152Z,0.73
2023-02-19T19:41:22.040Z,0.80
2023-02-19T19:44:24.175Z,0.63
2023-02-19T19:47:26.021Z,2.57
2023-02-19T19:50:28.135Z,1.53
2023-02-19T19:53:30.038Z,2.00
2023-02-19T19:56:32.060Z,0.90
2023-02-19T19:59:34.861Z,0.90
2023-02-19T20:02:36.797Z,1.30
2023-02-19T20:05:38.696Z,0.73
2023-02-19T20:08:40.838Z,0.80
2023-02-19T20:11:50.678Z,0.70
2023-02-19T20:14:52.681Z,0.50
2023-02-19T20:17:54.939Z,0.50
2023-02-19T20:20:57.240Z,0.40
2023-02-19T20:23:59.154Z,0.40
2023-02-19T20:27:03.192Z,0.40
2023-02-19T20:30:06.623Z,0.50
2023-02-19T20:33:08.791Z,0.57
2023-02-19T20:36:10.685Z,0.53
2023-02-19T20:39:12.662Z,0.60
2023-02-19T20:42:16.713Z,0.77
2023-02-19T20:45:18.991Z,0.60
2023-02-19T20:48:20.920Z,0.67
2023-02-19T20:51:22.933Z,0.70
2023-02-19T20:54:27.211Z,0.73
2023-02-19T20:57:29.744Z,0.73
2023-02-19T21:00:31.827Z,0.90
2023-02-19T21:03:33.840Z,0.70
2023-02-19T21:06:35.925Z,0.50
2023-02-19T21:09:37.875Z,1.20
2023-02-19T21:12:40.043Z,0.90
2023-02-19T21:15:42.021Z,0.70
2023-02-19T21:18:43.997Z,1.30
2023-02-19T21:21:45.986Z,1.13
2023-02-19T21:24:52.258Z,0.90
2023-02-19T21:27:54.225Z,0.60
2023-02-19T21:30:56.120Z,0.50
2023-02-19T21:33:58.180Z,0.50
2023-02-19T21:37:00.106Z,0.70
2023-02-19T21:40:02.351Z,0.43
2023-02-19T21:43:04.870Z,0.60
2023-02-19T21:46:07.383Z,0.70
2023-02-19T21:49:11.008Z,1.17
2023-02-19T21:52:13.319Z,0.90
2023-02-19T21:55:15.175Z,0.90
2023-02-19T21:58:17.201Z,0.70
2023-02-19T22:01:22.435Z,0.87
2023-02-19T22:04:24.975Z,0.67
2023-02-19T22:07:26.980Z,0.70
2023-02-19T22:10:30.198Z,0.90
2023-02-19T22:13:32.132Z,0.90
2023-02-19T22:16:34.873Z,1.00
2023-02-19T22:19:37.049Z,1.03
2023-02-19T22:22:40.966Z,0.83
2023-02-19T22:25:42.938Z,0.90
2023-02-19T22:28:45.559Z,1.07
2023-02-19T22:31:47.750Z,0.60
2023-02-19T22:34:49.912Z,0.80
2023-02-19T22:37:51.956Z,0.77
2023-02-19T22:40:54.335Z,0.60
2023-02-19T22:43:57.949Z,0.63
2023-02-19T22:47:00.244Z,0.70
2023-02-19T22:50:02.350Z,0.60
2023-02-19T22:53:04.370Z,0.90
2023-02-19T22:56:06.543Z,1.37
2023-02-19T22:59:08.682Z,1.10
2023-02-19T23:02:10.643Z,1.03
2023-02-19T23:05:13.109Z,1.27
2023-02-19T23:08:15.049Z,0.60
2023-02-19T23:11:22.621Z,0.70
2023-02-19T23:14:24.550Z,4.53
2023-02-19T23:17:26.617Z,3.93
2023-02-19T23:20:28.537Z,5.67
2023-02-19T23:23:30.509Z,3.10
2023-02-19T23:26:32.392Z,1.50
2023-02-19T23:29:34.875Z,1.70
2023-02-19T23:32:36.750Z,2.03
2023-02-19T23:35:38.994Z,1.20
2023-02-19T23:38:43.797Z,0.87
2023-02-19T23:41:50.951Z,0.87
2023-02-19T23:44:52.815Z,0.80
2023-02-19T23:47:54.844Z,0.90
2023-02-19T23:50:56.701Z,0.70
2023-02-19T23:53:58.666Z,0.70
2023-02-19T23:57:00.577Z,0.70
